Deer Valley, UT

12:15 PM MDT on May 24, 2015 (GMT -0600)
MesoWest | | Change Station
CLOSE
Current Station
Personal Weather Station
Location: Park City, UT
Elevation: 6400 ft
Nearby Weather Stations

Elev 6400 ft 40.73 °N, 111.54 °W | Updated 35 minutes ago

Overcast
Overcast
49 °F
Feels Like 45 °F
N
9
Wind Variable Wind from West
Gusts 14.0 mph

Today
High -- | Low -- °F
--% Chance of Precip.
Yesterday
High -- | Low -- °F
Precip. -- in
6:01 AM 8:44 PM
Waxing Crescent, 41% visible
Pressure 29.97 in
Visibility 7.0 miles
Clouds Scattered Clouds 1400 ft
Mostly Cloudy 5000 ft
Overcast 6000 ft
Windchill 45 °F
Dew Point 39 °F
Humidity 67%
Rainfall in
Snow Depth Not available.
UV 3 out of 12
Pollen 5.40 out of 12
Air Quality Not available.
Flu Activity Sporadic
METAR K36U 241755Z AUTO 27006KT 7SM -RA SCT014 BKN050 OVC060 11/05 A2997 RMK AO2

More Conditions Fewer Conditions

Pressure 29.97 in
Visibility 7.0 miles
Clouds Scattered Clouds 1400 ft
Mostly Cloudy 5000 ft
Overcast 6000 ft
Windchill 45 °F
Dew Point 39 °F
Humidity 67%
Rainfall in
Snow Depth Not available.
UV 3 out of 12
Pollen 5.40 out of 12
Air Quality Not available.
Flu Activity Sporadic
METAR K36U 241755Z AUTO 27006KT 7SM -RA SCT014 BKN050 OVC060 11/05 A2997 RMK AO2

More Conditions Fewer Conditions

10-Day Weather Forecast

Almanac

Astronomy

May. 24, 2015 Rise Set
Actual Time
Civil Twilight
Nautical Twilight
Astronomical Twilight
Moon
Length of Visible Light
Length of Day
Tomorrow will be .
, % of the Moon is Illuminated

Today's Extremes

State Highs State Lows

Community

WunderPhotos

Upload Photos

1,823,817 photos uploaded!

WunderBlogs® & News

Nearby

Air Quality

  Air Quality AQ Index Pollutant
Not available.

Snow Depth

Station Depth Elevation

Earthquake Activity

City Distance Mag. Time & Date
Minimum magnitude displayed is 2.5.

Coastal Water Temperatures

Place Temperature

Stations

Nearby Weather Stations

Station Location Temp. Windchill Dew Point Humidity Wind Precip. Elev Updated Type